sensor_id;sensor_type;location;lat;lon;timestamp;P1;durP1;ratioP1;P2;durP2;ratioP2
23302;SDS011;11820;48.738;9.092;2022-10-28T00:00:32;9.63;;;3.10;;
23302;SDS011;11820;48.738;9.092;2022-10-28T00:03:01;9.10;;;3.37;;
23302;SDS011;11820;48.738;9.092;2022-10-28T00:05:27;11.73;;;3.63;;
23302;SDS011;11820;48.738;9.092;2022-10-28T00:07:52;6.07;;;3.47;;
23302;SDS011;11820;48.738;9.092;2022-10-28T00:10:18;8.13;;;3.53;;
23302;SDS011;11820;48.738;9.092;2022-10-28T00:12:43;7.23;;;3.20;;
23302;SDS011;11820;48.738;9.092;2022-10-28T00:15:09;9.97;;;3.07;;
23302;SDS011;11820;48.738;9.092;2022-10-28T00:17:34;10.63;;;3.00;;
23302;SDS011;11820;48.738;9.092;2022-10-28T00:19:59;8.20;;;3.00;;
23302;SDS011;11820;48.738;9.092;2022-10-28T00:22:25;7.33;;;3.30;;
23302;SDS011;11820;48.738;9.092;2022-10-28T00:24:51;6.83;;;3.13;;
23302;SDS011;11820;48.738;9.092;2022-10-28T00:27:16;8.60;;;2.90;;
23302;SDS011;11820;48.738;9.092;2022-10-28T00:29:42;6.80;;;3.20;;
23302;SDS011;11820;48.738;9.092;2022-10-28T00:32:07;6.60;;;3.30;;
23302;SDS011;11820;48.738;9.092;2022-10-28T00:34:32;7.00;;;3.30;;
23302;SDS011;11820;48.738;9.092;2022-10-28T00:36:58;6.37;;;3.07;;
23302;SDS011;11820;48.738;9.092;2022-10-28T00:39:24;5.57;;;3.37;;
23302;SDS011;11820;48.738;9.092;2022-10-28T00:41:53;6.97;;;2.70;;
23302;SDS011;11820;48.738;9.092;2022-10-28T00:45:21;8.57;;;3.27;;
23302;SDS011;11820;48.738;9.092;2022-10-28T00:47:35;6.60;;;2.83;;
23302;SDS011;11820;48.738;9.092;2022-10-28T00:53:04;7.40;;;3.63;;
23302;SDS011;11820;48.738;9.092;2022-10-28T00:55:34;8.97;;;4.17;;
23302;SDS011;11820;48.738;9.092;2022-10-28T00:58:00;10.63;;;3.73;;
23302;SDS011;11820;48.738;9.092;2022-10-28T01:00:28;7.37;;;2.93;;
23302;SDS011;11820;48.738;9.092;2022-10-28T01:02:53;10.57;;;3.33;;
23302;SDS011;11820;48.738;9.092;2022-10-28T01:05:20;8.33;;;3.40;;
23302;SDS011;11820;48.738;9.092;2022-10-28T01:07:49;10.30;;;3.63;;
23302;SDS011;11820;48.738;9.092;2022-10-28T01:10:17;8.43;;;3.07;;
23302;SDS011;11820;48.738;9.092;2022-10-28T01:12:53;5.47;;;2.97;;
23302;SDS011;11820;48.738;9.092;2022-10-28T01:18:21;11.47;;;3.23;;
23302;SDS011;11820;48.738;9.092;2022-10-28T01:21:47;8.17;;;2.90;;
23302;SDS011;11820;48.738;9.092;2022-10-28T01:27:05;9.57;;;3.17;;
23302;SDS011;11820;48.738;9.092;2022-10-28T01:29:55;6.90;;;3.10;;
23302;SDS011;11820;48.738;9.092;2022-10-28T01:35:11;10.57;;;3.70;;
23302;SDS011;11820;48.738;9.092;2022-10-28T01:37:58;10.97;;;3.33;;
23302;SDS011;11820;48.738;9.092;2022-10-28T01:40:42;8.73;;;3.60;;
23302;SDS011;11820;48.738;9.092;2022-10-28T01:45:52;6.40;;;3.20;;
23302;SDS011;11820;48.738;9.092;2022-10-28T01:48:25;9.33;;;3.90;;
23302;SDS011;11820;48.738;9.092;2022-10-28T01:53:37;5.73;;;2.80;;
23302;SDS011;11820;48.738;9.092;2022-10-28T01:56:07;11.57;;;3.30;;
23302;SDS011;11820;48.738;9.092;2022-10-28T01:58:36;7.90;;;3.53;;
23302;SDS011;11820;48.738;9.092;2022-10-28T02:01:03;10.73;;;3.33;;
23302;SDS011;11820;48.738;9.092;2022-10-28T02:03:30;6.53;;;3.10;;
23302;SDS011;11820;48.738;9.092;2022-10-28T02:05:56;8.30;;;3.07;;
23302;SDS011;11820;48.738;9.092;2022-10-28T02:08:42;9.93;;;3.67;;
23302;SDS011;11820;48.738;9.092;2022-10-28T02:14:06;10.33;;;2.97;;
23302;SDS011;11820;48.738;9.092;2022-10-28T02:25:06;5.50;;;3.03;;
23302;SDS011;11820;48.738;9.092;2022-10-28T02:27:39;10.10;;;3.50;;
23302;SDS011;11820;48.738;9.092;2022-10-28T02:30:11;6.40;;;3.10;;
23302;SDS011;11820;48.738;9.092;2022-10-28T02:32:45;9.33;;;2.97;;
23302;SDS011;11820;48.738;9.092;2022-10-28T02:35:19;7.50;;;3.10;;
23302;SDS011;11820;48.738;9.092;2022-10-28T02:37:50;7.00;;;2.70;;
23302;SDS011;11820;48.738;9.092;2022-10-28T02:40:20;8.13;;;3.27;;
23302;SDS011;11820;48.738;9.092;2022-10-28T02:42:53;5.83;;;2.43;;
23302;SDS011;11820;48.738;9.092;2022-10-28T02:45:23;7.20;;;2.67;;
23302;SDS011;11820;48.738;9.092;2022-10-28T02:48:00;9.57;;;3.33;;
23302;SDS011;11820;48.738;9.092;2022-10-28T02:50:34;11.33;;;3.03;;
23302;SDS011;11820;48.738;9.092;2022-10-28T02:53:07;7.00;;;2.70;;
23302;SDS011;11820;48.738;9.092;2022-10-28T02:55:38;7.60;;;2.70;;
23302;SDS011;11820;48.738;9.092;2022-10-28T02:58:06;9.87;;;3.47;;
23302;SDS011;11820;48.738;9.092;2022-10-28T03:00:32;6.90;;;3.07;;
23302;SDS011;11820;48.738;9.092;2022-10-28T03:02:57;6.43;;;2.83;;
23302;SDS011;11820;48.738;9.092;2022-10-28T03:05:23;7.83;;;2.77;;
23302;SDS011;11820;48.738;9.092;2022-10-28T03:07:48;6.13;;;2.83;;
23302;SDS011;11820;48.738;9.092;2022-10-28T03:10:13;6.33;;;2.60;;
23302;SDS011;11820;48.738;9.092;2022-10-28T03:12:39;7.07;;;2.97;;
23302;SDS011;11820;48.738;9.092;2022-10-28T03:15:04;8.37;;;2.87;;
23302;SDS011;11820;48.738;9.092;2022-10-28T03:17:30;11.13;;;3.60;;
23302;SDS011;11820;48.738;9.092;2022-10-28T03:19:55;8.43;;;2.80;;
23302;SDS011;11820;48.738;9.092;2022-10-28T03:22:20;8.07;;;2.80;;
23302;SDS011;11820;48.738;9.092;2022-10-28T03:24:45;8.47;;;2.83;;
23302;SDS011;11820;48.738;9.092;2022-10-28T03:27:11;5.50;;;2.57;;
23302;SDS011;11820;48.738;9.092;2022-10-28T03:29:36;7.57;;;2.80;;
23302;SDS011;11820;48.738;9.092;2022-10-28T03:32:01;6.23;;;2.43;;
23302;SDS011;11820;48.738;9.092;2022-10-28T03:34:27;8.27;;;2.97;;
23302;SDS011;11820;48.738;9.092;2022-10-28T03:36:52;8.37;;;2.40;;
23302;SDS011;11820;48.738;9.092;2022-10-28T03:39:17;8.93;;;3.07;;
23302;SDS011;11820;48.738;9.092;2022-10-28T03:41:43;8.77;;;2.83;;
23302;SDS011;11820;48.738;9.092;2022-10-28T03:44:08;7.43;;;2.70;;
23302;SDS011;11820;48.738;9.092;2022-10-28T03:46:33;5.53;;;2.40;;
23302;SDS011;11820;48.738;9.092;2022-10-28T03:48:59;9.90;;;3.03;;
23302;SDS011;11820;48.738;9.092;2022-10-28T03:51:24;10.37;;;3.10;;
23302;SDS011;11820;48.738;9.092;2022-10-28T03:53:49;6.10;;;2.50;;
23302;SDS011;11820;48.738;9.092;2022-10-28T03:56:15;8.83;;;2.70;;
23302;SDS011;11820;48.738;9.092;2022-10-28T03:58:40;6.27;;;2.67;;
23302;SDS011;11820;48.738;9.092;2022-10-28T04:01:05;5.43;;;2.30;;
23302;SDS011;11820;48.738;9.092;2022-10-28T04:03:31;6.90;;;2.67;;
23302;SDS011;11820;48.738;9.092;2022-10-28T04:05:56;4.10;;;2.03;;
23302;SDS011;11820;48.738;9.092;2022-10-28T04:08:21;8.03;;;2.83;;
23302;SDS011;11820;48.738;9.092;2022-10-28T04:10:47;7.30;;;2.63;;
23302;SDS011;11820;48.738;9.092;2022-10-28T04:13:12;7.30;;;2.57;;
23302;SDS011;11820;48.738;9.092;2022-10-28T04:15:38;4.93;;;2.30;;
23302;SDS011;11820;48.738;9.092;2022-10-28T04:18:04;6.37;;;2.90;;
23302;SDS011;11820;48.738;9.092;2022-10-28T04:20:30;7.67;;;2.47;;
23302;SDS011;11820;48.738;9.092;2022-10-28T04:22:56;4.90;;;2.70;;
23302;SDS011;11820;48.738;9.092;2022-10-28T04:25:21;8.23;;;3.10;;
23302;SDS011;11820;48.738;9.092;2022-10-28T04:27:47;7.33;;;2.83;;
23302;SDS011;11820;48.738;9.092;2022-10-28T04:30:13;5.87;;;2.70;;
23302;SDS011;11820;48.738;9.092;2022-10-28T04:32:39;5.83;;;2.87;;
23302;SDS011;11820;48.738;9.092;2022-10-28T04:35:06;5.93;;;2.60;;
23302;SDS011;11820;48.738;9.092;2022-10-28T04:37:32;6.90;;;2.63;;
23302;SDS011;11820;48.738;9.092;2022-10-28T04:39:57;5.87;;;3.07;;
23302;SDS011;11820;48.738;9.092;2022-10-28T04:42:23;4.70;;;2.20;;
23302;SDS011;11820;48.738;9.092;2022-10-28T04:44:48;8.47;;;2.47;;
23302;SDS011;11820;48.738;9.092;2022-10-28T04:47:14;5.57;;;2.17;;
23302;SDS011;11820;48.738;9.092;2022-10-28T04:49:40;10.93;;;2.60;;
23302;SDS011;11820;48.738;9.092;2022-10-28T04:52:06;4.93;;;2.23;;
23302;SDS011;11820;48.738;9.092;2022-10-28T04:54:31;8.10;;;2.43;;
23302;SDS011;11820;48.738;9.092;2022-10-28T04:56:56;10.13;;;2.80;;
23302;SDS011;11820;48.738;9.092;2022-10-28T04:59:22;8.80;;;2.47;;
23302;SDS011;11820;48.738;9.092;2022-10-28T05:01:47;4.63;;;1.70;;
23302;SDS011;11820;48.738;9.092;2022-10-28T05:04:12;5.43;;;2.03;;
23302;SDS011;11820;48.738;9.092;2022-10-28T05:06:37;3.30;;;1.90;;
23302;SDS011;11820;48.738;9.092;2022-10-28T05:09:03;9.43;;;2.30;;
23302;SDS011;11820;48.738;9.092;2022-10-28T05:11:28;10.53;;;2.80;;
23302;SDS011;11820;48.738;9.092;2022-10-28T05:13:53;8.03;;;2.47;;
23302;SDS011;11820;48.738;9.092;2022-10-28T05:16:19;5.43;;;2.33;;
23302;SDS011;11820;48.738;9.092;2022-10-28T05:18:44;4.43;;;2.27;;
23302;SDS011;11820;48.738;9.092;2022-10-28T05:21:10;3.80;;;1.83;;
23302;SDS011;11820;48.738;9.092;2022-10-28T05:23:35;6.47;;;2.57;;
23302;SDS011;11820;48.738;9.092;2022-10-28T05:26:00;5.23;;;2.10;;
23302;SDS011;11820;48.738;9.092;2022-10-28T05:28:26;9.33;;;2.30;;
23302;SDS011;11820;48.738;9.092;2022-10-28T05:30:51;9.30;;;2.67;;
23302;SDS011;11820;48.738;9.092;2022-10-28T05:33:16;4.93;;;1.93;;
23302;SDS011;11820;48.738;9.092;2022-10-28T05:35:41;4.63;;;2.40;;
23302;SDS011;11820;48.738;9.092;2022-10-28T05:38:07;4.70;;;1.93;;
23302;SDS011;11820;48.738;9.092;2022-10-28T05:40:32;7.10;;;2.40;;
23302;SDS011;11820;48.738;9.092;2022-10-28T05:42:58;6.73;;;2.47;;
23302;SDS011;11820;48.738;9.092;2022-10-28T05:45:24;5.20;;;1.80;;
23302;SDS011;11820;48.738;9.092;2022-10-28T05:47:50;6.60;;;2.13;;
23302;SDS011;11820;48.738;9.092;2022-10-28T05:50:16;5.43;;;2.00;;
23302;SDS011;11820;48.738;9.092;2022-10-28T05:52:49;6.50;;;2.57;;
23302;SDS011;11820;48.738;9.092;2022-10-28T05:55:17;6.00;;;2.40;;
23302;SDS011;11820;48.738;9.092;2022-10-28T05:57:47;6.80;;;2.10;;
23302;SDS011;11820;48.738;9.092;2022-10-28T06:00:13;4.77;;;2.00;;
23302;SDS011;11820;48.738;9.092;2022-10-28T06:02:40;5.10;;;2.07;;
23302;SDS011;11820;48.738;9.092;2022-10-28T06:05:07;3.90;;;2.30;;
23302;SDS011;11820;48.738;9.092;2022-10-28T06:07:33;4.83;;;2.03;;
23302;SDS011;11820;48.738;9.092;2022-10-28T06:09:59;4.70;;;2.03;;
23302;SDS011;11820;48.738;9.092;2022-10-28T06:12:25;7.43;;;2.40;;
23302;SDS011;11820;48.738;9.092;2022-10-28T06:14:51;4.43;;;2.40;;
23302;SDS011;11820;48.738;9.092;2022-10-28T06:17:16;7.03;;;2.20;;
23302;SDS011;11820;48.738;9.092;2022-10-28T06:19:41;7.50;;;2.10;;
23302;SDS011;11820;48.738;9.092;2022-10-28T06:22:07;5.17;;;2.20;;
23302;SDS011;11820;48.738;9.092;2022-10-28T06:24:32;5.73;;;2.10;;
23302;SDS011;11820;48.738;9.092;2022-10-28T06:26:57;5.80;;;2.10;;
23302;SDS011;11820;48.738;9.092;2022-10-28T06:29:23;6.03;;;1.93;;
23302;SDS011;11820;48.738;9.092;2022-10-28T06:31:48;3.80;;;1.50;;
23302;SDS011;11820;48.738;9.092;2022-10-28T06:34:13;7.90;;;2.17;;
23302;SDS011;11820;48.738;9.092;2022-10-28T06:36:39;6.43;;;2.00;;
23302;SDS011;11820;48.738;9.092;2022-10-28T06:39:04;5.03;;;2.17;;
23302;SDS011;11820;48.738;9.092;2022-10-28T06:41:30;4.97;;;2.73;;
23302;SDS011;11820;48.738;9.092;2022-10-28T06:43:56;4.63;;;1.97;;
23302;SDS011;11820;48.738;9.092;2022-10-28T06:46:21;5.13;;;1.80;;
23302;SDS011;11820;48.738;9.092;2022-10-28T06:48:46;4.63;;;2.00;;
23302;SDS011;11820;48.738;9.092;2022-10-28T06:51:13;4.53;;;1.60;;
23302;SDS011;11820;48.738;9.092;2022-10-28T06:53:40;5.60;;;2.13;;
23302;SDS011;11820;48.738;9.092;2022-10-28T06:56:05;7.40;;;2.07;;
23302;SDS011;11820;48.738;9.092;2022-10-28T06:58:30;4.37;;;2.00;;
23302;SDS011;11820;48.738;9.092;2022-10-28T07:00:56;4.73;;;2.40;;
23302;SDS011;11820;48.738;9.092;2022-10-28T07:03:26;6.63;;;2.33;;
23302;SDS011;11820;48.738;9.092;2022-10-28T07:05:51;6.80;;;2.73;;
23302;SDS011;11820;48.738;9.092;2022-10-28T07:08:17;9.93;;;3.17;;
23302;SDS011;11820;48.738;9.092;2022-10-28T07:10:42;7.80;;;3.13;;
23302;SDS011;11820;48.738;9.092;2022-10-28T07:13:07;8.23;;;3.30;;
23302;SDS011;11820;48.738;9.092;2022-10-28T07:15:32;8.47;;;2.77;;
23302;SDS011;11820;48.738;9.092;2022-10-28T07:17:58;4.83;;;2.13;;
23302;SDS011;11820;48.738;9.092;2022-10-28T07:20:24;4.13;;;2.10;;
23302;SDS011;11820;48.738;9.092;2022-10-28T07:22:58;4.77;;;1.97;;
23302;SDS011;11820;48.738;9.092;2022-10-28T07:25:25;5.60;;;1.93;;
23302;SDS011;11820;48.738;9.092;2022-10-28T07:27:51;6.73;;;2.20;;
23302;SDS011;11820;48.738;9.092;2022-10-28T07:30:17;6.83;;;2.67;;
23302;SDS011;11820;48.738;9.092;2022-10-28T07:32:42;3.53;;;1.93;;
23302;SDS011;11820;48.738;9.092;2022-10-28T07:35:08;7.40;;;2.10;;
23302;SDS011;11820;48.738;9.092;2022-10-28T07:37:33;3.10;;;1.80;;
23302;SDS011;11820;48.738;9.092;2022-10-28T07:39:58;4.47;;;2.10;;
23302;SDS011;11820;48.738;9.092;2022-10-28T07:42:24;7.13;;;1.90;;
23302;SDS011;11820;48.738;9.092;2022-10-28T07:44:49;6.73;;;1.80;;
23302;SDS011;11820;48.738;9.092;2022-10-28T07:47:14;4.73;;;2.27;;
23302;SDS011;11820;48.738;9.092;2022-10-28T07:49:41;9.73;;;1.93;;
23302;SDS011;11820;48.738;9.092;2022-10-28T07:52:07;4.03;;;2.10;;
23302;SDS011;11820;48.738;9.092;2022-10-28T07:54:33;6.03;;;2.43;;
23302;SDS011;11820;48.738;9.092;2022-10-28T07:56:58;5.90;;;2.00;;
23302;SDS011;11820;48.738;9.092;2022-10-28T07:59:24;3.63;;;1.63;;
23302;SDS011;11820;48.738;9.092;2022-10-28T08:01:49;6.53;;;2.07;;
23302;SDS011;11820;48.738;9.092;2022-10-28T08:04:14;8.97;;;2.37;;
23302;SDS011;11820;48.738;9.092;2022-10-28T08:06:40;7.17;;;2.03;;
23302;SDS011;11820;48.738;9.092;2022-10-28T08:09:05;5.80;;;1.73;;
23302;SDS011;11820;48.738;9.092;2022-10-28T08:11:30;8.67;;;2.10;;
23302;SDS011;11820;48.738;9.092;2022-10-28T08:13:56;6.37;;;1.90;;
23302;SDS011;11820;48.738;9.092;2022-10-28T08:16:21;5.23;;;1.87;;
23302;SDS011;11820;48.738;9.092;2022-10-28T08:18:46;3.83;;;1.63;;
23302;SDS011;11820;48.738;9.092;2022-10-28T08:21:12;6.77;;;2.00;;
23302;SDS011;11820;48.738;9.092;2022-10-28T08:23:38;6.33;;;2.00;;
23302;SDS011;11820;48.738;9.092;2022-10-28T08:26:05;6.20;;;2.07;;
23302;SDS011;11820;48.738;9.092;2022-10-28T08:28:31;4.00;;;1.67;;
23302;SDS011;11820;48.738;9.092;2022-10-28T08:31:00;4.57;;;1.67;;
23302;SDS011;11820;48.738;9.092;2022-10-28T08:33:27;5.13;;;1.73;;
23302;SDS011;11820;48.738;9.092;2022-10-28T08:35:52;7.70;;;1.83;;
23302;SDS011;11820;48.738;9.092;2022-10-28T08:38:17;5.10;;;1.97;;
23302;SDS011;11820;48.738;9.092;2022-10-28T08:48:47;7.73;;;2.13;;
23302;SDS011;11820;48.738;9.092;2022-10-28T08:51:16;8.30;;;1.80;;
23302;SDS011;11820;48.738;9.092;2022-10-28T08:53:47;7.90;;;2.33;;
23302;SDS011;11820;48.738;9.092;2022-10-28T08:56:42;5.87;;;1.80;;
23302;SDS011;11820;48.738;9.092;2022-10-28T08:59:11;5.83;;;2.00;;
23302;SDS011;11820;48.738;9.092;2022-10-28T09:01:51;4.53;;;1.80;;
23302;SDS011;11820;48.738;9.092;2022-10-28T09:07:03;9.30;;;2.30;;
23302;SDS011;11820;48.738;9.092;2022-10-28T09:09:29;11.63;;;2.77;;
23302;SDS011;11820;48.738;9.092;2022-10-28T09:17:27;5.70;;;1.90;;
23302;SDS011;11820;48.738;9.092;2022-10-28T09:20:08;6.60;;;2.13;;
23302;SDS011;11820;48.738;9.092;2022-10-28T09:22:57;5.40;;;2.13;;
23302;SDS011;11820;48.738;9.092;2022-10-28T09:36:33;11.87;;;2.43;;
23302;SDS011;11820;48.738;9.092;2022-10-28T09:39:02;5.27;;;2.30;;
23302;SDS011;11820;48.738;9.092;2022-10-28T09:41:32;7.03;;;2.30;;
23302;SDS011;11820;48.738;9.092;2022-10-28T09:44:10;8.77;;;2.37;;
23302;SDS011;11820;48.738;9.092;2022-10-28T09:46:40;6.50;;;2.20;;
23302;SDS011;11820;48.738;9.092;2022-10-28T09:49:15;11.30;;;2.33;;
23302;SDS011;11820;48.738;9.092;2022-10-28T09:54:10;7.43;;;2.10;;
23302;SDS011;11820;48.738;9.092;2022-10-28T09:56:36;4.57;;;1.70;;
23302;SDS011;11820;48.738;9.092;2022-10-28T09:59:03;5.57;;;1.87;;
23302;SDS011;11820;48.738;9.092;2022-10-28T10:01:30;9.63;;;2.00;;
23302;SDS011;11820;48.738;9.092;2022-10-28T10:03:57;7.63;;;1.80;;
23302;SDS011;11820;48.738;9.092;2022-10-28T10:06:28;6.63;;;2.03;;
23302;SDS011;11820;48.738;9.092;2022-10-28T10:08:59;7.93;;;2.20;;
23302;SDS011;11820;48.738;9.092;2022-10-28T10:11:33;6.40;;;1.63;;
23302;SDS011;11820;48.738;9.092;2022-10-28T10:14:06;5.53;;;2.13;;
23302;SDS011;11820;48.738;9.092;2022-10-28T10:16:41;8.90;;;2.03;;
23302;SDS011;11820;48.738;9.092;2022-10-28T10:19:11;4.67;;;1.97;;
23302;SDS011;11820;48.738;9.092;2022-10-28T10:21:47;7.03;;;2.67;;
23302;SDS011;11820;48.738;9.092;2022-10-28T10:24:20;10.47;;;1.80;;
23302;SDS011;11820;48.738;9.092;2022-10-28T10:27:03;6.70;;;2.50;;
23302;SDS011;11820;48.738;9.092;2022-10-28T10:29:44;9.63;;;1.80;;
23302;SDS011;11820;48.738;9.092;2022-10-28T10:32:16;5.30;;;1.93;;
23302;SDS011;11820;48.738;9.092;2022-10-28T10:34:50;5.70;;;2.37;;
23302;SDS011;11820;48.738;9.092;2022-10-28T10:37:21;6.07;;;2.47;;
23302;SDS011;11820;48.738;9.092;2022-10-28T10:39:58;6.13;;;2.10;;
23302;SDS011;11820;48.738;9.092;2022-10-28T10:42:24;10.60;;;2.63;;
23302;SDS011;11820;48.738;9.092;2022-10-28T10:44:58;4.03;;;2.10;;
23302;SDS011;11820;48.738;9.092;2022-10-28T10:47:26;5.23;;;2.20;;
23302;SDS011;11820;48.738;9.092;2022-10-28T10:49:51;7.33;;;1.77;;
23302;SDS011;11820;48.738;9.092;2022-10-28T10:52:21;5.37;;;2.30;;
23302;SDS011;11820;48.738;9.092;2022-10-28T10:55:02;4.70;;;1.97;;
23302;SDS011;11820;48.738;9.092;2022-10-28T10:57:31;6.67;;;2.33;;
23302;SDS011;11820;48.738;9.092;2022-10-28T10:59:57;4.90;;;1.97;;
23302;SDS011;11820;48.738;9.092;2022-10-28T11:02:27;3.73;;;1.77;;
23302;SDS011;11820;48.738;9.092;2022-10-28T11:04:59;5.57;;;1.93;;
23302;SDS011;11820;48.738;9.092;2022-10-28T11:07:27;5.33;;;1.83;;
23302;SDS011;11820;48.738;9.092;2022-10-28T11:09:55;5.87;;;2.03;;
23302;SDS011;11820;48.738;9.092;2022-10-28T11:12:28;7.60;;;1.83;;
23302;SDS011;11820;48.738;9.092;2022-10-28T11:17:25;4.87;;;1.90;;
23302;SDS011;11820;48.738;9.092;2022-10-28T11:19:52;7.67;;;2.37;;
23302;SDS011;11820;48.738;9.092;2022-10-28T11:24:59;6.40;;;2.33;;
23302;SDS011;11820;48.738;9.092;2022-10-28T11:30:28;8.33;;;1.87;;
23302;SDS011;11820;48.738;9.092;2022-10-28T11:33:18;5.17;;;1.97;;
23302;SDS011;11820;48.738;9.092;2022-10-28T11:35:55;6.87;;;1.90;;
23302;SDS011;11820;48.738;9.092;2022-10-28T11:43:49;5.23;;;2.30;;
23302;SDS011;11820;48.738;9.092;2022-10-28T11:51:55;8.40;;;2.57;;
23302;SDS011;11820;48.738;9.092;2022-10-28T11:57:10;8.87;;;2.07;;
23302;SDS011;11820;48.738;9.092;2022-10-28T12:02:35;6.27;;;2.03;;
23302;SDS011;11820;48.738;9.092;2022-10-28T12:10:10;5.87;;;2.30;;
23302;SDS011;11820;48.738;9.092;2022-10-28T12:12:38;5.73;;;2.37;;
23302;SDS011;11820;48.738;9.092;2022-10-28T12:17:50;8.47;;;2.13;;
23302;SDS011;11820;48.738;9.092;2022-10-28T12:23:24;6.57;;;2.40;;
23302;SDS011;11820;48.738;9.092;2022-10-28T12:25:52;3.47;;;1.90;;
23302;SDS011;11820;48.738;9.092;2022-10-28T12:28:54;8.73;;;2.03;;
23302;SDS011;11820;48.738;9.092;2022-10-28T12:31:17;5.20;;;1.87;;
23302;SDS011;11820;48.738;9.092;2022-10-28T12:33:55;5.27;;;2.17;;
23302;SDS011;11820;48.738;9.092;2022-10-28T12:39:13;5.37;;;2.33;;
23302;SDS011;11820;48.738;9.092;2022-10-28T12:44:20;7.43;;;2.20;;
23302;SDS011;11820;48.738;9.092;2022-10-28T12:49:28;7.33;;;2.47;;
23302;SDS011;11820;48.738;9.092;2022-10-28T12:52:07;12.97;;;3.33;;
23302;SDS011;11820;48.738;9.092;2022-10-28T12:55:28;7.60;;;2.30;;
23302;SDS011;11820;48.738;9.092;2022-10-28T12:57:41;8.40;;;2.27;;
23302;SDS011;11820;48.738;9.092;2022-10-28T13:02:46;7.23;;;1.93;;
23302;SDS011;11820;48.738;9.092;2022-10-28T13:05:19;6.87;;;2.60;;
23302;SDS011;11820;48.738;9.092;2022-10-28T13:10:57;7.90;;;1.90;;
23302;SDS011;11820;48.738;9.092;2022-10-28T13:19:14;5.57;;;2.30;;
23302;SDS011;11820;48.738;9.092;2022-10-28T13:22:03;6.80;;;1.90;;
23302;SDS011;11820;48.738;9.092;2022-10-28T13:27:32;9.07;;;2.50;;
23302;SDS011;11820;48.738;9.092;2022-10-28T13:29:58;5.03;;;2.10;;
23302;SDS011;11820;48.738;9.092;2022-10-28T13:35:00;11.43;;;2.53;;
23302;SDS011;11820;48.738;9.092;2022-10-28T13:37:36;8.87;;;2.53;;
23302;SDS011;11820;48.738;9.092;2022-10-28T13:40:03;7.27;;;2.60;;
23302;SDS011;11820;48.738;9.092;2022-10-28T13:42:31;7.50;;;2.50;;
23302;SDS011;11820;48.738;9.092;2022-10-28T13:53:56;7.83;;;2.33;;
23302;SDS011;11820;48.738;9.092;2022-10-28T13:58:52;10.13;;;2.80;;
23302;SDS011;11820;48.738;9.092;2022-10-28T14:04:03;9.73;;;2.60;;
23302;SDS011;11820;48.738;9.092;2022-10-28T14:06:30;5.47;;;2.50;;
23302;SDS011;11820;48.738;9.092;2022-10-28T14:08:58;10.40;;;2.43;;
23302;SDS011;11820;48.738;9.092;2022-10-28T14:11:24;11.43;;;2.60;;
23302;SDS011;11820;48.738;9.092;2022-10-28T14:14:00;10.77;;;3.07;;
23302;SDS011;11820;48.738;9.092;2022-10-28T14:16:31;5.60;;;2.20;;
23302;SDS011;11820;48.738;9.092;2022-10-28T14:19:23;9.53;;;2.97;;
23302;SDS011;11820;48.738;9.092;2022-10-28T14:24:34;7.00;;;1.97;;
23302;SDS011;11820;48.738;9.092;2022-10-28T14:29:29;8.47;;;3.53;;
23302;SDS011;11820;48.738;9.092;2022-10-28T14:31:54;10.00;;;2.97;;
23302;SDS011;11820;48.738;9.092;2022-10-28T14:39:37;9.27;;;3.00;;
23302;SDS011;11820;48.738;9.092;2022-10-28T14:42:25;8.50;;;2.70;;
23302;SDS011;11820;48.738;9.092;2022-10-28T14:50:50;8.53;;;2.37;;
23302;SDS011;11820;48.738;9.092;2022-10-28T14:53:18;6.17;;;2.30;;
23302;SDS011;11820;48.738;9.092;2022-10-28T14:55:50;13.27;;;3.40;;
23302;SDS011;11820;48.738;9.092;2022-10-28T14:58:23;7.43;;;2.40;;
23302;SDS011;11820;48.738;9.092;2022-10-28T15:01:02;10.40;;;2.53;;
23302;SDS011;11820;48.738;9.092;2022-10-28T15:03:33;9.67;;;2.67;;
23302;SDS011;11820;48.738;9.092;2022-10-28T15:06:18;6.23;;;2.30;;
23302;SDS011;11820;48.738;9.092;2022-10-28T15:08:55;10.13;;;3.03;;
23302;SDS011;11820;48.738;9.092;2022-10-28T15:11:26;10.10;;;2.53;;
23302;SDS011;11820;48.738;9.092;2022-10-28T15:13:51;6.70;;;2.53;;
23302;SDS011;11820;48.738;9.092;2022-10-28T15:16:20;6.17;;;2.43;;
23302;SDS011;11820;48.738;9.092;2022-10-28T15:18:48;7.37;;;2.63;;
23302;SDS011;11820;48.738;9.092;2022-10-28T15:21:16;6.43;;;2.23;;
23302;SDS011;11820;48.738;9.092;2022-10-28T15:23:43;10.37;;;3.03;;
23302;SDS011;11820;48.738;9.092;2022-10-28T15:26:13;7.80;;;1.90;;
23302;SDS011;11820;48.738;9.092;2022-10-28T15:28:40;8.03;;;2.60;;
23302;SDS011;11820;48.738;9.092;2022-10-28T15:31:06;10.00;;;2.73;;
23302;SDS011;11820;48.738;9.092;2022-10-28T15:33:36;8.80;;;2.60;;
23302;SDS011;11820;48.738;9.092;2022-10-28T15:36:13;11.67;;;2.60;;
23302;SDS011;11820;48.738;9.092;2022-10-28T15:38:45;6.97;;;2.67;;
23302;SDS011;11820;48.738;9.092;2022-10-28T15:43:46;6.60;;;2.70;;
23302;SDS011;11820;48.738;9.092;2022-10-28T15:46:18;8.57;;;3.57;;
23302;SDS011;11820;48.738;9.092;2022-10-28T15:48:43;11.93;;;2.80;;
23302;SDS011;11820;48.738;9.092;2022-10-28T15:51:13;6.30;;;2.87;;
23302;SDS011;11820;48.738;9.092;2022-10-28T15:53:41;8.83;;;3.00;;
23302;SDS011;11820;48.738;9.092;2022-10-28T15:58:39;10.37;;;2.77;;
23302;SDS011;11820;48.738;9.092;2022-10-28T16:01:07;9.00;;;3.20;;
23302;SDS011;11820;48.738;9.092;2022-10-28T16:03:44;10.63;;;2.80;;
23302;SDS011;11820;48.738;9.092;2022-10-28T16:06:33;7.80;;;2.60;;
23302;SDS011;11820;48.738;9.092;2022-10-28T16:11:39;10.30;;;2.63;;
23302;SDS011;11820;48.738;9.092;2022-10-28T16:17:06;11.93;;;3.17;;
23302;SDS011;11820;48.738;9.092;2022-10-28T16:19:35;11.70;;;3.10;;
23302;SDS011;11820;48.738;9.092;2022-10-28T16:22:03;8.17;;;2.37;;
23302;SDS011;11820;48.738;9.092;2022-10-28T16:24:29;7.47;;;2.87;;
23302;SDS011;11820;48.738;9.092;2022-10-28T16:27:11;13.40;;;3.47;;
23302;SDS011;11820;48.738;9.092;2022-10-28T16:29:37;12.07;;;2.90;;
23302;SDS011;11820;48.738;9.092;2022-10-28T16:32:02;5.57;;;2.90;;
23302;SDS011;11820;48.738;9.092;2022-10-28T16:34:27;11.57;;;3.30;;
23302;SDS011;11820;48.738;9.092;2022-10-28T16:36:53;10.13;;;3.50;;
23302;SDS011;11820;48.738;9.092;2022-10-28T16:39:18;7.97;;;2.70;;
23302;SDS011;11820;48.738;9.092;2022-10-28T16:41:43;14.67;;;3.33;;
23302;SDS011;11820;48.738;9.092;2022-10-28T16:44:18;8.83;;;3.10;;
23302;SDS011;11820;48.738;9.092;2022-10-28T16:46:43;9.50;;;2.97;;
23302;SDS011;11820;48.738;9.092;2022-10-28T16:49:08;7.50;;;2.60;;
23302;SDS011;11820;48.738;9.092;2022-10-28T16:51:34;7.93;;;3.10;;
23302;SDS011;11820;48.738;9.092;2022-10-28T16:53:59;8.73;;;2.67;;
23302;SDS011;11820;48.738;9.092;2022-10-28T16:56:24;6.20;;;2.67;;
23302;SDS011;11820;48.738;9.092;2022-10-28T16:58:50;11.00;;;3.63;;
23302;SDS011;11820;48.738;9.092;2022-10-28T17:01:17;9.03;;;2.63;;
23302;SDS011;11820;48.738;9.092;2022-10-28T17:03:44;15.57;;;3.57;;
23302;SDS011;11820;48.738;9.092;2022-10-28T17:06:10;7.10;;;2.80;;
23302;SDS011;11820;48.738;9.092;2022-10-28T17:08:35;9.17;;;3.33;;
23302;SDS011;11820;48.738;9.092;2022-10-28T17:11:00;11.73;;;3.37;;
23302;SDS011;11820;48.738;9.092;2022-10-28T17:13:27;12.13;;;4.13;;
23302;SDS011;11820;48.738;9.092;2022-10-28T17:15:52;7.33;;;3.37;;
23302;SDS011;11820;48.738;9.092;2022-10-28T17:18:18;8.20;;;3.20;;
23302;SDS011;11820;48.738;9.092;2022-10-28T17:20:44;7.60;;;2.50;;
23302;SDS011;11820;48.738;9.092;2022-10-28T17:23:10;13.07;;;2.70;;
23302;SDS011;11820;48.738;9.092;2022-10-28T17:25:35;9.97;;;3.03;;
23302;SDS011;11820;48.738;9.092;2022-10-28T17:28:01;13.10;;;3.27;;
23302;SDS011;11820;48.738;9.092;2022-10-28T17:30:26;10.17;;;3.00;;
23302;SDS011;11820;48.738;9.092;2022-10-28T17:32:52;12.20;;;3.17;;
23302;SDS011;11820;48.738;9.092;2022-10-28T17:35:19;7.10;;;2.97;;